LFQQ/LIL METAR and TAF weather

Enter ICAO airport designator
Station Type Date Time Source
LFQQ METAR 2023/02/05 23:00 UTC NOAA

LFQQ 052300Z AUTO 35005KT CAVOK 04/02 Q1043


Station Type Date Time Source
LFQQ Decoded METAR 2023/02/05 23:00 UTC NOAA

Lille, France (LFQQ) 50-34N 003-06E 52M
Feb 05, 2023 - 06:00 PM EST / 2023.02.05 2300 UTC
Wind: from the N (350 degrees) at 6 MPH (5 KT):0
Visibility: greater than 7 mile(s):0
Temperature: 39 F (4 C)
Dew Point: 35 F (2 C)
Relative Humidity: 86%
Pressure (altimeter): 30.80 in. Hg (1043 hPa)
ob: LFQQ 052300Z AUTO 35005KT CAVOK 04/02 Q1043
cycle: 23

Station Type Date Time Source
LFQQ TAF 2023/02/05 18:21 UTC NOAA

TAF LFQQ 051700Z 0518/0624 36015KT 9999 SCT020
BECMG 0520/0523 02005KT PROB30 0606/0611 3000 BR OVC003

Example: see airport list